Time;durP1;ratioP1;P1;durP2;ratioP2;P2;SDS_P1;SDS_P2;PMS_P1;PMS_P2;Temp;Humidity;BMP_temperature;BMP_pressure;BME280_temperature;BME280_humidity;BME280_pressure;Samples;Min_cycle;Max_cycle;Signal;HPM_P1;HPM_P2
2022/09/03 00:00:23;;;;;;;1.53;1.37;;;16.80;99.90;;;;;;5040875;28;20641;-79
2022/09/03 00:02:58;;;;;;;2.77;1.40;;;16.80;99.90;;;;;;5047097;28;20667;-79
2022/09/03 00:05:33;;;;;;;1.50;1.37;;;16.80;99.90;;;;;;5045739;28;20621;-79
2022/09/03 00:08:04;;;;;;;1.57;1.30;;;16.80;99.90;;;;;;5045681;28;20994;-79
2022/09/03 00:10:39;;;;;;;4.60;1.43;;;16.80;99.90;;;;;;5044735;28;20673;-79
2022/09/03 00:13:09;;;;;;;1.50;1.23;;;16.80;99.90;;;;;;5044783;28;20637;-79
2022/09/03 00:15:40;;;;;;;1.60;1.20;;;16.80;99.90;;;;;;5045148;28;21081;-79
2022/09/03 00:18:10;;;;;;;2.10;1.40;;;16.80;99.90;;;;;;5044215;28;20637;-79
2022/09/03 00:20:41;;;;;;;2.80;1.20;;;16.80;99.90;;;;;;5044176;28;21276;-79
2022/09/03 00:23:10;;;;;;;1.40;1.30;;;16.80;99.90;;;;;;5047761;28;20630;-80
2022/09/03 00:25:45;;;;;;;1.57;1.47;;;16.90;99.90;;;;;;5043965;28;20736;-79
2022/09/03 00:28:16;;;;;;;3.30;1.30;;;16.90;99.90;;;;;;5047071;28;20633;-79
2022/09/03 00:30:46;;;;;;;1.57;1.47;;;17.00;99.90;;;;;;5046219;28;20657;-80
2022/09/03 00:33:18;;;;;;;2.90;1.33;;;16.90;99.90;;;;;;5044412;28;20637;-79
2022/09/03 00:35:50;;;;;;;2.90;1.43;;;17.00;99.90;;;;;;5043424;28;20626;-79
2022/09/03 00:38:17;;;;;;;2.40;1.63;;;17.00;99.90;;;;;;5042679;28;21108;-79
2022/09/03 00:41:05;;;;;;;2.27;1.30;;;17.10;99.90;;;;;;5046583;28;20654;-79
2022/09/03 00:43:52;;;;;;;4.30;1.57;;;17.10;99.90;;;;;;5041682;28;20626;-79
2022/09/03 00:46:30;;;;;;;5.07;1.80;;;17.10;99.90;;;;;;5042156;28;20625;-79
2022/09/03 00:49:18;;;;;;;1.43;1.30;;;17.10;99.90;;;;;;5042384;28;20617;-79
2022/09/03 00:51:55;;;;;;;1.70;1.30;;;17.10;99.90;;;;;;5044320;28;20708;-79
2022/09/03 00:54:31;;;;;;;1.90;1.80;;;17.10;99.90;;;;;;5042829;28;21249;-79
2022/09/03 00:57:13;;;;;;;1.30;1.20;;;17.10;99.90;;;;;;5044568;28;21322;-79
2022/09/03 00:59:44;;;;;;;2.83;1.47;;;17.10;99.90;;;;;;5044793;28;20618;-79
2022/09/03 01:02:27;;;;;;;1.63;1.53;;;17.10;99.90;;;;;;5046137;28;20646;-79
2022/09/03 01:05:01;;;;;;;2.33;1.47;;;17.10;99.90;;;;;;5044794;28;20645;-80
2022/09/03 01:07:37;;;;;;;1.97;1.57;;;17.20;99.90;;;;;;5045359;28;20629;-79
2022/09/03 01:10:15;;;;;;;5.60;1.50;;;17.20;99.90;;;;;;5043337;28;20995;-79
2022/09/03 01:12:50;;;;;;;2.80;1.80;;;17.20;99.90;;;;;;5043705;28;20671;-79
2022/09/03 01:15:22;;;;;;;2.17;1.53;;;17.20;99.90;;;;;;5044358;28;21196;-79
2022/09/03 01:18:02;;;;;;;1.67;1.53;;;17.20;99.90;;;;;;5045779;28;20625;-79
2022/09/03 01:20:52;;;;;;;2.47;1.60;;;17.20;99.90;;;;;;5041147;28;20618;-79
2022/09/03 01:23:48;;;;;;;1.57;1.37;;;17.20;99.90;;;;;;5044027;28;21466;-79
2022/09/03 01:26:30;;;;;;;5.20;2.23;;;17.20;99.90;;;;;;5042667;28;20630;-79
2022/09/03 01:29:07;;;;;;;3.27;2.00;;;17.30;99.90;;;;;;5047349;28;20641;-79
2022/09/03 01:31:41;;;;;;;6.30;1.70;;;17.20;99.90;;;;;;5043249;28;20685;-79
2022/09/03 01:34:19;;;;;;;2.27;1.47;;;17.20;99.90;;;;;;5044489;28;21063;-79
2022/09/03 01:36:55;;;;;;;3.10;1.73;;;17.30;99.90;;;;;;5044483;28;20633;-79
2022/09/03 01:39:33;;;;;;;5.13;2.73;;;17.30;99.90;;;;;;5044363;28;20763;-79
2022/09/03 01:42:15;;;;;;;1.57;1.40;;;17.40;99.90;;;;;;5044505;28;21351;-79
2022/09/03 01:45:20;;;;;;;1.70;1.60;;;17.30;99.90;;;;;;5041787;28;21201;-79
2022/09/03 01:48:06;;;;;;;4.43;1.33;;;17.30;99.90;;;;;;5043001;28;20630;-79
2022/09/03 01:50:42;;;;;;;5.33;1.47;;;17.20;99.90;;;;;;5040844;28;20629;-79
2022/09/03 01:53:26;;;;;;;1.67;1.57;;;17.20;99.90;;;;;;5043520;28;20673;-79
2022/09/03 01:56:14;;;;;;;2.07;1.57;;;17.30;99.90;;;;;;5045975;28;20610;-80
2022/09/03 01:58:45;;;;;;;3.53;1.30;;;17.30;99.90;;;;;;5041376;28;20629;-79
2022/09/03 02:01:21;;;;;;;2.00;1.90;;;17.30;99.90;;;;;;5043845;28;20651;-81
2022/09/03 02:03:49;;;;;;;2.00;1.43;;;17.30;99.90;;;;;;5043210;28;20633;-80
2022/09/03 02:06:18;;;;;;;2.13;1.40;;;17.30;99.90;;;;;;5043189;28;21195;-80
2022/09/03 02:08:44;;;;;;;2.40;1.20;;;17.30;99.90;;;;;;5042096;28;20637;-79
2022/09/03 02:11:11;;;;;;;1.90;1.13;;;17.30;99.90;;;;;;5045074;28;20661;-79
2022/09/03 02:13:41;;;;;;;1.90;1.70;;;17.30;99.90;;;;;;5037370;28;20966;-78
2022/09/03 02:16:13;;;;;;;1.40;1.30;;;17.30;99.90;;;;;;5041309;28;20649;-79
2022/09/03 02:18:45;;;;;;;1.73;1.63;;;17.30;99.90;;;;;;5045769;28;20618;-80
2022/09/03 02:21:16;;;;;;;1.70;1.60;;;17.30;99.90;;;;;;5042720;28;20638;-79
2022/09/03 02:23:43;;;;;;;2.30;1.40;;;17.30;99.90;;;;;;5041003;28;20629;-79
2022/09/03 02:26:12;;;;;;;1.53;1.43;;;17.30;99.90;;;;;;5041822;28;20676;-79
2022/09/03 02:28:39;;;;;;;1.77;1.30;;;17.40;99.90;;;;;;5043472;28;20634;-79
2022/09/03 02:31:06;;;;;;;1.70;1.43;;;17.30;99.90;;;;;;5043529;28;20629;-79
2022/09/03 02:33:37;;;;;;;1.53;1.30;;;17.40;99.90;;;;;;5044518;28;20624;-79
2022/09/03 02:36:08;;;;;;;1.63;1.37;;;17.40;99.90;;;;;;5044267;28;20649;-80
2022/09/03 02:38:36;;;;;;;1.53;1.43;;;17.40;99.90;;;;;;5045065;28;20641;-79
2022/09/03 02:41:03;;;;;;;4.50;1.60;;;17.40;99.90;;;;;;5047761;28;20740;-80
2022/09/03 02:43:39;;;;;;;1.73;1.53;;;17.40;99.90;;;;;;5043875;28;20626;-79
2022/09/03 02:46:09;;;;;;;1.63;1.53;;;17.40;99.90;;;;;;5044458;28;21136;-78
2022/09/03 02:48:36;;;;;;;2.10;1.43;;;17.40;99.90;;;;;;5045344;28;21104;-79
2022/09/03 02:51:05;;;;;;;1.33;1.23;;;17.50;99.90;;;;;;5047099;28;20652;-79
2022/09/03 02:53:32;;;;;;;4.50;1.37;;;17.40;99.90;;;;;;5045298;28;20669;-79
2022/09/03 02:55:59;;;;;;;1.57;1.40;;;17.40;99.90;;;;;;5046584;28;20649;-78
2022/09/03 02:58:27;;;;;;;1.67;1.57;;;17.40;99.90;;;;;;5046623;28;20633;-78
2022/09/03 03:00:54;;;;;;;1.50;1.37;;;17.20;99.90;;;;;;5046027;28;21214;-78
2022/09/03 03:03:21;;;;;;;1.70;1.60;;;17.20;99.90;;;;;;5045956;28;20629;-78
2022/09/03 03:05:50;;;;;;;2.40;1.57;;;17.10;99.90;;;;;;5044830;28;21582;-79
2022/09/03 03:08:22;;;;;;;1.57;1.47;;;17.10;99.90;;;;;;5044316;28;20630;-79
2022/09/03 03:10:50;;;;;;;2.70;1.77;;;17.00;99.90;;;;;;5045868;28;20696;-79
2022/09/03 03:13:18;;;;;;;2.23;1.80;;;16.90;99.90;;;;;;5040863;28;21411;-79
2022/09/03 03:15:45;;;;;;;2.70;1.70;;;16.80;99.90;;;;;;5044147;28;20676;-79
2022/09/03 03:18:12;;;;;;;1.43;1.30;;;16.70;99.90;;;;;;5043973;28;20669;-80
2022/09/03 03:20:40;;;;;;;1.63;1.53;;;16.70;99.90;;;;;;5044432;28;20630;-79
2022/09/03 03:23:07;;;;;;;2.77;1.50;;;16.60;99.90;;;;;;5045750;28;20629;-80
2022/09/03 03:25:38;;;;;;;2.10;2.00;;;16.70;99.90;;;;;;5043076;28;21044;-80
2022/09/03 03:28:06;;;;;;;1.53;1.40;;;16.60;99.90;;;;;;5045339;28;20630;-80
2022/09/03 03:30:34;;;;;;;2.50;2.07;;;16.60;99.90;;;;;;5043969;28;20641;-79
2022/09/03 03:33:00;;;;;;;2.83;1.47;;;16.50;99.90;;;;;;5044316;28;20665;-79
2022/09/03 03:35:27;;;;;;;5.10;2.27;;;16.50;99.90;;;;;;5043101;28;20802;-79
2022/09/03 03:37:54;;;;;;;6.40;2.23;;;16.40;99.90;;;;;;5041852;28;20634;-79
2022/09/03 03:40:21;;;;;;;5.83;1.77;;;16.40;99.90;;;;;;5044451;28;20638;-79
2022/09/03 03:42:49;;;;;;;2.50;1.70;;;16.40;99.90;;;;;;5043375;28;20638;-78
2022/09/03 03:45:16;;;;;;;1.67;1.57;;;16.40;99.90;;;;;;5043115;28;21040;-79
2022/09/03 03:47:43;;;;;;;1.40;1.23;;;16.30;99.90;;;;;;5044711;28;20629;-79
2022/09/03 03:50:10;;;;;;;1.90;1.80;;;16.30;99.90;;;;;;5045979;28;20656;-79
2022/09/03 03:52:37;;;;;;;1.43;1.33;;;16.30;99.90;;;;;;5043712;28;20676;-79
2022/09/03 03:55:04;;;;;;;4.93;1.90;;;16.30;99.90;;;;;;5043242;28;20656;-79
2022/09/03 03:57:31;;;;;;;3.77;1.80;;;16.20;99.90;;;;;;5043229;28;20626;-79
2022/09/03 04:00:00;;;;;;;1.73;1.50;;;16.20;99.90;;;;;;5042584;28;20633;-79
2022/09/03 04:02:27;;;;;;;1.93;1.73;;;16.30;99.90;;;;;;5042641;28;20682;-79
2022/09/03 04:04:53;;;;;;;2.47;1.90;;;16.30;99.90;;;;;;5044029;28;20634;-79
2022/09/03 04:07:20;;;;;;;1.77;1.67;;;16.30;99.90;;;;;;5041969;28;20633;-79
2022/09/03 04:09:48;;;;;;;1.60;1.50;;;16.40;99.90;;;;;;5045559;28;20626;-79
2022/09/03 04:12:15;;;;;;;1.80;1.70;;;16.40;99.90;;;;;;5044620;28;20673;-78
2022/09/03 04:14:42;;;;;;;1.90;1.80;;;16.40;99.90;;;;;;5043576;28;20657;-79
2022/09/03 04:17:10;;;;;;;1.93;1.50;;;16.40;99.90;;;;;;5044476;28;20633;-79
2022/09/03 04:19:38;;;;;;;2.10;1.60;;;16.40;99.90;;;;;;5044063;28;20719;-79
2022/09/03 04:22:06;;;;;;;1.80;1.70;;;16.40;99.90;;;;;;5044924;28;20654;-79
2022/09/03 04:24:34;;;;;;;1.63;1.53;;;16.40;99.90;;;;;;5031974;28;20729;-79
2022/09/03 04:27:01;;;;;;;1.73;1.63;;;16.40;99.90;;;;;;5044994;28;20692;-78
2022/09/03 04:29:29;;;;;;;2.17;1.97;;;16.40;99.90;;;;;;5030104;28;20654;-79
2022/09/03 04:34:41;;;;;;;2.20;1.90;;;16.50;99.90;;;;;;5046455;28;20756;-79
2022/09/03 04:37:09;;;;;;;1.93;1.80;;;16.50;99.90;;;;;;5048239;28;21429;-79
2022/09/03 04:39:36;;;;;;;1.80;1.50;;;16.50;99.90;;;;;;5046837;28;20665;-79
2022/09/03 04:42:03;;;;;;;3.30;2.13;;;16.50;99.90;;;;;;5045674;28;20649;-79
2022/09/03 04:44:30;;;;;;;1.97;1.87;;;16.40;99.90;;;;;;5045697;28;20639;-79
2022/09/03 04:46:56;;;;;;;2.10;1.70;;;16.40;99.90;;;;;;5046948;28;20635;-79
2022/09/03 04:49:23;;;;;;;3.87;1.90;;;16.40;99.90;;;;;;5047168;28;20637;-79
2022/09/03 04:51:52;;;;;;;3.10;1.50;;;16.40;99.90;;;;;;5047300;28;21307;-79
2022/09/03 04:54:18;;;;;;;3.13;1.77;;;16.40;99.90;;;;;;5045651;28;20622;-80
2022/09/03 04:56:45;;;;;;;3.07;1.80;;;16.40;99.90;;;;;;5046815;28;20641;-81
2022/09/03 04:59:12;;;;;;;2.20;1.77;;;16.40;99.90;;;;;;5046231;28;20619;-79
2022/09/03 05:01:40;;;;;;;2.83;2.07;;;16.40;99.90;;;;;;5047768;28;20744;-79
2022/09/03 05:04:08;;;;;;;2.13;1.73;;;16.30;99.90;;;;;;5046473;28;20669;-79
2022/09/03 05:06:36;;;;;;;4.10;1.77;;;16.30;99.90;;;;;;5045772;28;20642;-79
2022/09/03 05:09:05;;;;;;;2.47;2.27;;;16.30;99.90;;;;;;5047476;28;20974;-79
2022/09/03 05:11:33;;;;;;;7.07;2.00;;;16.40;99.90;;;;;;5046963;28;21248;-79
2022/09/03 05:14:00;;;;;;;1.77;1.67;;;16.40;99.90;;;;;;5045994;28;21311;-78
2022/09/03 05:16:28;;;;;;;1.87;1.73;;;16.40;99.90;;;;;;5045167;28;20618;-79
2022/09/03 05:18:58;;;;;;;2.20;1.70;;;16.40;99.90;;;;;;5046930;28;20653;-78
2022/09/03 05:21:25;;;;;;;2.93;2.17;;;16.40;99.90;;;;;;5045762;28;20650;-79
2022/09/03 05:23:53;;;;;;;2.97;1.83;;;16.40;99.90;;;;;;5045706;28;20653;-78
2022/09/03 05:26:24;;;;;;;3.57;1.90;;;16.40;99.90;;;;;;5045611;28;21455;-78
2022/09/03 05:28:54;;;;;;;1.80;1.70;;;16.40;99.90;;;;;;5046745;28;20622;-79
2022/09/03 05:31:22;;;;;;;6.43;2.00;;;16.50;99.90;;;;;;5044888;28;20749;-80
2022/09/03 05:33:50;;;;;;;2.07;1.87;;;16.50;99.90;;;;;;5036582;28;20650;-78
2022/09/03 05:36:19;;;;;;;4.93;2.60;;;16.60;99.90;;;;;;5045401;28;20629;-80
2022/09/03 05:38:47;;;;;;;3.03;2.03;;;16.60;99.90;;;;;;5047553;28;20664;-79
2022/09/03 05:41:16;;;;;;;4.23;1.97;;;16.60;99.90;;;;;;5045797;28;20672;-79
2022/09/03 05:43:44;;;;;;;2.70;1.40;;;16.70;99.90;;;;;;5043260;28;20621;-79
2022/09/03 05:46:14;;;;;;;4.50;1.80;;;16.80;99.90;;;;;;5045304;28;20641;-79
2022/09/03 05:48:41;;;;;;;3.33;2.23;;;16.90;99.90;;;;;;5045399;28;20614;-80
2022/09/03 05:51:11;;;;;;;2.97;2.07;;;16.90;99.90;;;;;;5045956;28;21306;-80
2022/09/03 05:53:40;;;;;;;2.67;1.73;;;16.90;99.90;;;;;;5045436;28;20665;-79
2022/09/03 05:56:09;;;;;;;5.87;2.20;;;17.00;99.90;;;;;;5046020;28;20665;-81
2022/09/03 05:58:39;;;;;;;4.30;1.87;;;17.00;99.90;;;;;;5045898;28;20996;-80
2022/09/03 06:01:12;;;;;;;1.67;1.57;;;17.00;99.90;;;;;;5045880;28;21091;-79
2022/09/03 06:03:39;;;;;;;2.40;2.20;;;17.10;99.90;;;;;;5045699;28;20716;-81
2022/09/03 06:06:07;;;;;;;6.33;1.97;;;17.20;99.90;;;;;;5046142;28;20642;-80
2022/09/03 06:08:33;;;;;;;2.83;1.90;;;17.30;99.90;;;;;;5043321;28;20626;-80
2022/09/03 06:11:02;;;;;;;2.87;2.23;;;17.30;99.90;;;;;;5043775;28;20654;-80
2022/09/03 06:13:30;;;;;;;2.37;2.17;;;17.40;99.90;;;;;;5045339;28;20712;-80
2022/09/03 06:15:57;;;;;;;2.50;2.30;;;17.40;99.90;;;;;;5045880;28;20626;-80
2022/09/03 06:18:27;;;;;;;3.50;2.30;;;17.40;99.90;;;;;;5044705;28;20626;-81
2022/09/03 06:20:55;;;;;;;2.23;1.90;;;17.40;99.90;;;;;;5045762;28;20650;-80
2022/09/03 06:23:22;;;;;;;3.60;2.33;;;17.50;99.90;;;;;;5043731;28;20980;-80
2022/09/03 06:25:48;;;;;;;3.20;2.10;;;17.50;99.90;;;;;;5044963;28;21045;-80
2022/09/03 06:28:15;;;;;;;6.10;3.27;;;17.50;99.90;;;;;;5043989;28;20649;-80
2022/09/03 06:30:42;;;;;;;2.80;2.37;;;17.50;99.90;;;;;;5046132;28;20645;-80
2022/09/03 06:33:09;;;;;;;2.70;2.27;;;17.50;99.90;;;;;;5045901;28;20677;-80
2022/09/03 06:35:37;;;;;;;2.57;2.37;;;17.60;99.90;;;;;;5045021;28;21055;-80
2022/09/03 06:38:05;;;;;;;8.53;2.60;;;17.60;99.90;;;;;;5045126;28;20630;-80
2022/09/03 06:40:32;;;;;;;2.70;2.17;;;17.70;99.90;;;;;;5045482;28;20638;-80
2022/09/03 06:43:02;;;;;;;2.60;2.13;;;17.70;99.90;;;;;;5044285;28;20624;-80
2022/09/03 06:45:29;;;;;;;2.50;2.30;;;17.80;99.90;;;;;;5045277;28;20622;-80
2022/09/03 06:47:56;;;;;;;3.33;2.10;;;17.80;99.90;;;;;;5045129;28;20628;-79
2022/09/03 06:50:23;;;;;;;4.37;2.30;;;17.90;99.90;;;;;;5044948;28;20980;-80
2022/09/03 06:52:54;;;;;;;5.10;1.90;;;17.90;99.90;;;;;;5044099;28;20686;-78
2022/09/03 06:55:21;;;;;;;2.40;2.20;;;17.90;99.90;;;;;;5042822;28;21191;-78
2022/09/03 06:57:49;;;;;;;2.77;1.90;;;17.90;99.90;;;;;;5044461;28;20661;-79
2022/09/03 07:00:17;;;;;;;2.90;2.50;;;18.00;99.90;;;;;;5034171;28;20653;-78
2022/09/03 07:02:44;;;;;;;4.20;2.27;;;18.00;99.90;;;;;;5043965;28;20996;-78
2022/09/03 07:05:11;;;;;;;6.73;2.07;;;18.00;99.90;;;;;;5043932;28;21013;-81
2022/09/03 07:07:37;;;;;;;4.20;2.10;;;18.10;99.90;;;;;;5044014;28;20996;-78
2022/09/03 07:10:10;;;;;;;2.90;2.07;;;18.10;99.90;;;;;;5043465;28;21125;-78
2022/09/03 07:12:37;;;;;;;2.57;2.17;;;18.20;99.90;;;;;;5045349;28;20656;-78
2022/09/03 07:15:04;;;;;;;3.10;2.63;;;18.20;99.90;;;;;;5043471;28;20633;-78
2022/09/03 07:17:31;;;;;;;2.23;2.07;;;18.30;99.90;;;;;;5042189;28;20703;-78
2022/09/03 07:19:58;;;;;;;2.07;1.80;;;18.40;99.90;;;;;;5044166;28;20618;-78
2022/09/03 07:22:25;;;;;;;2.33;2.10;;;18.50;99.90;;;;;;5043056;28;20666;-78
2022/09/03 07:24:52;;;;;;;2.23;1.97;;;18.50;99.90;;;;;;5042053;28;20610;-81
2022/09/03 07:27:20;;;;;;;2.47;2.27;;;18.50;99.90;;;;;;5043320;28;20661;-81
2022/09/03 07:29:46;;;;;;;2.20;2.10;;;18.60;99.90;;;;;;5044002;28;20626;-78
2022/09/03 07:32:13;;;;;;;2.33;2.13;;;18.60;99.90;;;;;;5043062;28;20660;-78
2022/09/03 07:34:40;;;;;;;2.50;2.20;;;18.70;99.90;;;;;;5042645;28;20775;-81
2022/09/03 07:37:07;;;;;;;2.53;2.33;;;18.80;99.90;;;;;;5043626;28;20630;-78
2022/09/03 07:39:34;;;;;;;3.90;2.40;;;18.90;99.90;;;;;;5042739;28;20631;-81
2022/09/03 07:42:01;;;;;;;2.17;1.80;;;19.00;99.90;;;;;;5038715;28;20666;-81
2022/09/03 07:44:29;;;;;;;2.20;1.93;;;19.10;99.90;;;;;;5042976;28;20653;-81
2022/09/03 07:46:56;;;;;;;3.07;2.80;;;19.30;99.90;;;;;;5044172;28;20625;-80
2022/09/03 07:49:23;;;;;;;5.00;2.77;;;19.40;99.90;;;;;;5042746;28;20624;-80
2022/09/03 07:51:52;;;;;;;4.37;2.27;;;19.50;99.90;;;;;;5045315;28;20641;-80
2022/09/03 07:54:20;;;;;;;2.87;2.53;;;19.70;99.90;;;;;;5041723;28;20684;-78
2022/09/03 07:56:48;;;;;;;3.00;2.37;;;19.80;99.90;;;;;;5042416;28;20628;-80
2022/09/03 07:59:14;;;;;;;2.07;1.87;;;19.80;99.90;;;;;;5042052;28;20641;-79
2022/09/03 08:01:42;;;;;;;5.33;3.20;;;19.90;99.90;;;;;;5045845;28;20664;-79
2022/09/03 08:04:10;;;;;;;5.73;2.93;;;20.00;99.90;;;;;;5043923;28;20653;-79
2022/09/03 08:06:38;;;;;;;5.33;2.27;;;20.10;99.90;;;;;;5043390;28;21255;-79
2022/09/03 08:09:07;;;;;;;2.07;1.97;;;20.20;99.90;;;;;;5048133;28;21049;-79
2022/09/03 08:11:37;;;;;;;3.17;1.90;;;20.40;99.90;;;;;;5047356;28;20653;-79
2022/09/03 08:14:06;;;;;;;5.27;2.30;;;20.50;99.90;;;;;;5048545;28;20676;-79
2022/09/03 08:16:35;;;;;;;2.33;2.13;;;20.60;99.90;;;;;;5046260;28;20634;-79
2022/09/03 08:19:04;;;;;;;2.10;2.00;;;20.70;99.90;;;;;;5045266;28;20634;-79
2022/09/03 08:21:31;;;;;;;2.30;2.10;;;20.80;99.90;;;;;;5045971;28;21260;-79
2022/09/03 08:24:01;;;;;;;4.10;2.40;;;20.80;99.90;;;;;;5047654;28;21160;-79
2022/09/03 08:26:30;;;;;;;2.80;2.50;;;20.90;99.90;;;;;;5046262;28;20637;-79
2022/09/03 08:28:57;;;;;;;5.23;2.70;;;20.90;99.90;;;;;;5047754;28;20633;-79
2022/09/03 08:31:26;;;;;;;4.70;2.30;;;20.90;99.90;;;;;;5045946;28;20657;-81
2022/09/03 08:33:54;;;;;;;2.90;2.50;;;20.90;99.90;;;;;;5046743;28;20670;-81
2022/09/03 08:36:25;;;;;;;3.03;2.30;;;20.90;99.90;;;;;;5046266;28;21458;-81
2022/09/03 08:38:54;;;;;;;5.73;2.27;;;20.90;99.90;;;;;;5047305;28;20637;-80
2022/09/03 08:41:30;;;;;;;3.90;3.20;;;21.00;99.90;;;;;;5046237;28;20710;-80
2022/09/03 08:44:20;;;;;;;2.80;2.40;;;21.10;99.90;;;;;;5046693;28;20621;-80
2022/09/03 08:46:51;;;;;;;2.00;1.90;;;21.30;99.90;;;;;;5045510;28;20642;-80
2022/09/03 08:49:24;;;;;;;3.73;3.47;;;21.50;99.90;;;;;;5044010;28;20644;-79
2022/09/03 08:51:54;;;;;;;3.07;2.77;;;21.60;99.90;;;;;;5045950;28;20657;-78
2022/09/03 08:54:26;;;;;;;3.97;3.67;;;21.80;99.90;;;;;;5045035;28;20666;-81
2022/09/03 08:56:55;;;;;;;2.87;2.67;;;22.00;99.90;;;;;;5047080;28;20626;-80
2022/09/03 08:59:22;;;;;;;3.13;2.93;;;22.10;99.90;;;;;;5046105;28;20630;-78
2022/09/03 09:01:55;;;;;;;3.23;2.73;;;22.20;99.90;;;;;;5047581;28;20656;-79
2022/09/03 09:04:39;;;;;;;3.33;2.90;;;22.20;99.90;;;;;;5045983;28;20688;-78
2022/09/03 09:07:11;;;;;;;2.83;2.63;;;22.30;99.90;;;;;;5043736;28;21372;-80
2022/09/03 09:09:47;;;;;;;3.40;3.10;;;22.60;99.90;;;;;;5047725;28;20630;-81
2022/09/03 09:12:24;;;;;;;3.27;2.97;;;22.60;99.90;;;;;;5046741;28;20649;-81
2022/09/03 09:15:03;;;;;;;3.17;2.97;;;22.70;99.90;;;;;;5046290;28;21001;-79
2022/09/03 09:17:45;;;;;;;3.20;3.00;;;22.80;99.90;;;;;;5047235;28;20626;-78
2022/09/03 09:20:23;;;;;;;3.13;2.90;;;22.80;99.90;;;;;;5042961;28;20649;-78
2022/09/03 09:22:55;;;;;;;3.13;2.93;;;23.00;99.90;;;;;;5048010;28;20704;-81
2022/09/03 09:25:25;;;;;;;2.90;2.70;;;23.10;99.90;;;;;;5045122;28;20671;-81
2022/09/03 09:27:56;;;;;;;3.93;3.00;;;23.20;99.90;;;;;;5044144;28;20634;-81
2022/09/03 09:30:23;;;;;;;2.70;2.50;;;23.40;99.90;;;;;;5044112;28;20744;-81
2022/09/03 09:32:50;;;;;;;4.93;2.67;;;23.30;99.90;;;;;;5046709;28;20629;-78
2022/09/03 09:35:18;;;;;;;3.03;2.73;;;23.40;99.90;;;;;;5046061;28;20661;-81
2022/09/03 09:37:51;;;;;;;3.60;2.67;;;23.40;99.90;;;;;;5047851;28;20666;-80
2022/09/03 09:40:31;;;;;;;4.57;3.10;;;23.40;99.90;;;;;;5045268;28;21019;-80
2022/09/03 09:43:11;;;;;;;4.33;2.83;;;23.40;99.90;;;;;;5044528;28;20617;-80
2022/09/03 09:45:39;;;;;;;4.13;2.90;;;23.40;99.90;;;;;;5044446;28;20640;-79
2022/09/03 09:48:13;;;;;;;4.07;3.63;;;23.50;99.90;;;;;;5045612;28;20649;-79
2022/09/03 09:50:40;;;;;;;3.67;3.37;;;23.50;99.90;;;;;;5045384;28;20645;-79
2022/09/03 09:53:14;;;;;;;3.00;2.80;;;23.60;99.90;;;;;;5046648;28;21464;-79
2022/09/03 09:55:53;;;;;;;3.90;3.43;;;23.70;99.90;;;;;;5040852;28;20748;-79
2022/09/03 09:58:22;;;;;;;4.00;2.43;;;23.90;99.90;;;;;;5044545;28;20657;-79
2022/09/03 10:01:02;;;;;;;7.13;2.90;;;24.10;99.90;;;;;;5044252;28;20707;-79
2022/09/03 10:03:34;;;;;;;3.87;3.57;;;24.30;99.90;;;;;;5044951;28;21089;-79
2022/09/03 10:08:53;;;;;;;2.50;2.33;;;24.40;99.90;;;;;;5044677;28;21207;-79
2022/09/03 10:11:24;;;;;;;2.97;2.70;;;24.60;99.90;;;;;;5045801;28;20699;-79
2022/09/03 10:13:53;;;;;;;3.50;3.20;;;24.80;99.90;;;;;;5045488;28;20610;-79
2022/09/03 10:16:26;;;;;;;4.30;2.80;;;24.80;99.90;;;;;;5042790;28;21163;-79
2022/09/03 10:19:01;;;;;;;3.67;2.97;;;24.70;99.90;;;;;;5043655;28;20630;-79
2022/09/03 10:21:34;;;;;;;3.97;3.67;;;24.60;99.90;;;;;;5043469;28;20982;-79
2022/09/03 10:24:15;;;;;;;4.00;3.70;;;24.50;99.90;;;;;;5046744;28;20610;-79
2022/09/03 10:26:44;;;;;;;3.40;3.10;;;24.40;99.90;;;;;;5046050;28;21067;-78
2022/09/03 10:29:15;;;;;;;3.47;3.10;;;24.30;99.90;;;;;;5047372;28;21140;-79
2022/09/03 10:32:03;;;;;;;4.73;3.23;;;24.30;99.90;;;;;;5046664;28;21011;-79
2022/09/03 10:34:38;;;;;;;3.33;3.03;;;24.30;99.90;;;;;;5044014;28;20666;-79
2022/09/03 10:37:18;;;;;;;2.87;2.67;;;24.30;99.90;;;;;;5042041;28;20613;-81
2022/09/03 10:39:58;;;;;;;3.17;2.97;;;24.30;99.90;;;;;;5041702;28;20657;-79
2022/09/03 10:42:38;;;;;;;3.70;3.40;;;24.40;99.90;;;;;;5043304;28;20660;-79
2022/09/03 10:45:15;;;;;;;3.70;2.93;;;24.40;99.90;;;;;;5042159;28;21096;-80
2022/09/03 10:48:05;;;;;;;3.00;2.77;;;24.50;99.90;;;;;;5039468;28;20712;-79
2022/09/03 10:50:42;;;;;;;3.13;2.83;;;24.60;99.90;;;;;;5040929;28;20664;-80
2022/09/03 10:53:19;;;;;;;3.20;2.90;;;24.50;99.90;;;;;;5045173;28;20614;-80
2022/09/03 10:55:56;;;;;;;4.10;3.80;;;24.50;99.90;;;;;;5045209;28;20723;-80
2022/09/03 10:58:39;;;;;;;4.63;3.00;;;24.50;99.90;;;;;;5045190;28;20659;-79
2022/09/03 11:01:17;;;;;;;3.27;2.97;;;24.60;99.90;;;;;;5041472;28;20649;-78
2022/09/03 11:03:47;;;;;;;4.20;3.00;;;24.60;99.90;;;;;;5044781;28;20643;-78
2022/09/03 11:06:20;;;;;;;4.07;3.77;;;24.60;99.90;;;;;;5042297;28;21370;-80
2022/09/03 11:08:54;;;;;;;3.23;3.03;;;24.70;99.90;;;;;;5043462;28;20579;-80
2022/09/03 11:11:27;;;;;;;2.93;2.70;;;24.80;99.90;;;;;;5043816;28;20649;-80
2022/09/03 11:13:59;;;;;;;3.63;3.33;;;24.80;99.60;;;;;;5044894;28;21191;-80
2022/09/03 11:16:31;;;;;;;3.37;3.17;;;24.80;99.90;;;;;;5042905;28;20606;-79
2022/09/03 11:19:04;;;;;;;2.67;2.47;;;24.70;99.90;;;;;;5044454;28;20621;-79
2022/09/03 11:21:32;;;;;;;3.20;2.97;;;24.50;99.90;;;;;;5043457;28;20662;-79
2022/09/03 11:24:08;;;;;;;6.03;3.40;;;24.60;99.90;;;;;;5046094;28;20622;-80
2022/09/03 11:26:38;;;;;;;4.83;3.13;;;24.60;99.90;;;;;;5043780;28;20637;-79
2022/09/03 11:29:09;;;;;;;3.00;2.80;;;24.60;99.90;;;;;;5043448;28;20632;-79
2022/09/03 11:31:49;;;;;;;2.70;2.50;;;24.50;99.90;;;;;;5042761;28;20646;-80
2022/09/03 11:34:27;;;;;;;3.57;3.27;;;24.50;99.90;;;;;;5044508;28;20633;-79
2022/09/03 11:37:06;;;;;;;5.43;3.10;;;24.50;99.90;;;;;;5045306;28;20629;-79
2022/09/03 11:39:35;;;;;;;3.07;2.87;;;24.50;99.90;;;;;;5042897;28;20610;-80
2022/09/03 11:42:09;;;;;;;3.53;2.50;;;24.40;99.90;;;;;;5038900;28;20692;-80
2022/09/03 11:44:37;;;;;;;2.87;2.70;;;24.40;99.90;;;;;;5039965;28;20637;-80
2022/09/03 11:47:16;;;;;;;3.37;3.13;;;24.30;99.90;;;;;;5039867;28;20645;-79
2022/09/03 11:49:49;;;;;;;3.63;3.20;;;24.30;99.90;;;;;;5043494;28;20659;-80
2022/09/03 11:52:27;;;;;;;2.90;2.70;;;24.10;99.90;;;;;;5042901;28;20719;-80
2022/09/03 11:54:54;;;;;;;4.20;2.63;;;24.10;99.90;;;;;;5041787;28;20731;-80
2022/09/03 11:57:28;;;;;;;3.40;3.10;;;23.90;99.90;;;;;;5042622;28;20661;-80
2022/09/03 12:00:08;;;;;;;2.80;2.60;;;23.90;99.90;;;;;;5044636;28;20675;-80
2022/09/03 12:02:38;;;;;;;3.53;2.90;;;23.80;99.90;;;;;;5043499;28;20654;-80
2022/09/03 12:05:19;;;;;;;3.10;2.90;;;23.70;99.90;;;;;;5043957;28;20729;-79
2022/09/03 12:08:22;;;;;;;5.13;2.93;;;23.50;99.90;;;;;;5042724;28;21338;-79
2022/09/03 12:10:57;;;;;;;3.50;3.30;;;23.40;99.90;;;;;;5007618;28;20721;-80
2022/09/03 12:13:44;;;;;;;3.27;3.07;;;23.30;99.90;;;;;;5043671;28;20633;-80
2022/09/03 12:16:29;;;;;;;3.87;3.50;;;23.30;99.90;;;;;;5049279;28;20669;-81
2022/09/03 12:19:03;;;;;;;4.47;3.20;;;23.20;99.90;;;;;;5043165;28;20618;-80
2022/09/03 12:21:30;;;;;;;3.63;2.90;;;23.10;99.90;;;;;;5042792;28;20646;-80
2022/09/03 12:23:56;;;;;;;5.93;3.73;;;22.80;99.90;;;;;;5045734;28;20700;-80
2022/09/03 12:26:26;;;;;;;4.43;3.57;;;22.70;99.90;;;;;;5042778;28;20630;-81
2022/09/03 12:28:57;;;;;;;4.10;3.70;;;22.40;99.90;;;;;;5045428;28;20625;-81
2022/09/03 12:31:28;;;;;;;2.30;2.10;;;22.30;99.90;;;;;;5043506;28;20661;-81
2022/09/03 12:33:58;;;;;;;4.17;1.70;;;21.90;99.90;;;;;;5043947;28;20630;-80
2022/09/03 12:36:27;;;;;;;1.90;1.10;;;21.20;99.90;;;;;;5043064;28;20712;-80
2022/09/03 12:38:53;;;;;;;1.83;0.93;;;20.70;99.90;;;;;;5044827;28;20644;-80
2022/09/03 12:41:26;;;;;;;3.13;1.17;;;20.60;99.90;;;;;;5042186;28;20662;-80
2022/09/03 12:43:58;;;;;;;2.30;1.07;;;20.30;99.90;;;;;;5044877;28;20621;-80
2022/09/03 12:46:27;;;;;;;4.37;1.50;;;20.10;99.90;;;;;;5042354;28;20610;-80
2022/09/03 12:48:55;;;;;;;2.03;1.20;;;19.70;99.90;;;;;;5042667;28;21073;-79
2022/09/03 12:51:22;;;;;;;1.90;1.30;;;19.50;99.90;;;;;;5043596;28;20756;-79
2022/09/03 12:53:52;;;;;;;2.57;1.57;;;19.30;99.90;;;;;;5046235;28;20625;-79
2022/09/03 12:56:21;;;;;;;1.57;1.30;;;19.20;99.90;;;;;;5046368;28;20650;-79
2022/09/03 12:58:52;;;;;;;1.43;1.00;;;19.20;99.90;;;;;;5047775;28;20630;-79
2022/09/03 13:01:25;;;;;;;2.10;1.20;;;19.20;99.90;;;;;;5048351;28;20661;-80
2022/09/03 13:03:56;;;;;;;2.23;0.87;;;19.10;99.90;;;;;;5047251;28;21124;-79
2022/09/03 13:06:28;;;;;;;2.60;1.40;;;18.90;99.90;;;;;;5045645;28;20648;-79
2022/09/03 13:08:58;;;;;;;3.73;1.40;;;18.90;99.90;;;;;;5047587;28;20629;-80
2022/09/03 13:11:25;;;;;;;3.73;1.80;;;18.90;99.90;;;;;;5047299;28;20668;-79
2022/09/03 13:13:55;;;;;;;4.53;1.53;;;18.70;99.90;;;;;;5048331;28;20618;-79